Kezdőlap
METAR-TAF:

METAR-TAF

Repülőterek :

Isla Margarita, Venezuela

földrajzi szélesség: 10-55N, földrajzi hosszúság: 063-59W, magasság: 23 m

METAR: hiányzik

Idő: 04:14 (08:14 UTC)

Előrejelzés

A jelentés 4 órával és 14 perccel ezelõtt készült, 04:00 UTC
Az előrejelzés 13-én 06 óra UTC és 14-én 06 óra UTC között érvényes
Nyugati szél 5 kt
Látótávolság 10 km, vagy több
Szórványos felhőzet 2000 lábon
13-én 05 óra UTC és 13-én 06 óra UTC között ideiglenes
Kelet-délkeleti szél 5 kt
Látótávolság 10 km, vagy több
Szórványos felhőzet 1300 lábon
Szakadozott felhőzet 4000 lábon

TAF: SVMG 130400Z 1306/1406 27005KT 9999 SCT020 TX33/1318Z TN24/1309Z TEMPO 1305/1306 11005KT 9999 SCT013 BKN040

Meteorológiai megfigyelések és előrejelzések több, mint 4000 repülőtéren (METAR és TAF jelentéseket).

A térképen piros és sárga pontok jelzik az elérhető meteorológiai állomásokat.

Mozgassa az egeret a pont fölött, hogy megjelenjen az állomás neve.

Azután kattintson az időjárási megfigyelések és előrejelzések megtekintéséhez.

A térkép megváltoztatása: kattintson a fekete keresztel jelölt zöld gombra ráközelítéshez, a vonallal jelölt zöld gombra távolításhoz, vagy a zöld nyilakra a szomszédos térképek eléréséhez.


METAR-TAF: